sensor_id;sensor_type;location;lat;lon;timestamp;temperature;humidity
20345;DHT22;10330;48.816;9.278;2023-04-03T00:01:20;5.00;99.90
20345;DHT22;10330;48.816;9.278;2023-04-03T00:03:47;4.90;99.90
20345;DHT22;10330;48.816;9.278;2023-04-03T00:06:13;5.00;99.90
20345;DHT22;10330;48.816;9.278;2023-04-03T00:08:40;5.00;99.90
20345;DHT22;10330;48.816;9.278;2023-04-03T00:11:13;4.90;99.90
20345;DHT22;10330;48.816;9.278;2023-04-03T00:13:39;4.90;99.90
20345;DHT22;10330;48.816;9.278;2023-04-03T00:16:12;5.00;99.90
20345;DHT22;10330;48.816;9.278;2023-04-03T00:18:39;4.90;99.90
20345;DHT22;10330;48.816;9.278;2023-04-03T00:21:07;4.90;99.90
20345;DHT22;10330;48.816;9.278;2023-04-03T00:23:43;4.90;99.90
20345;DHT22;10330;48.816;9.278;2023-04-03T00:26:13;4.90;99.90
20345;DHT22;10330;48.816;9.278;2023-04-03T00:28:51;4.80;99.90
20345;DHT22;10330;48.816;9.278;2023-04-03T00:35:42;4.80;99.90
20345;DHT22;10330;48.816;9.278;2023-04-03T00:37:56;4.80;99.90
20345;DHT22;10330;48.816;9.278;2023-04-03T00:48:34;4.80;99.90
20345;DHT22;10330;48.816;9.278;2023-04-03T00:51:23;4.70;99.90
20345;DHT22;10330;48.816;9.278;2023-04-03T00:54:16;4.70;99.90
20345;DHT22;10330;48.816;9.278;2023-04-03T00:57:31;4.70;99.90
20345;DHT22;10330;48.816;9.278;2023-04-03T01:00:19;4.70;99.90
20345;DHT22;10330;48.816;9.278;2023-04-03T01:03:09;4.70;99.90
20345;DHT22;10330;48.816;9.278;2023-04-03T01:05:45;4.70;99.90
20345;DHT22;10330;48.816;9.278;2023-04-03T01:08:24;4.70;99.90
20345;DHT22;10330;48.816;9.278;2023-04-03T01:11:47;4.70;99.90
20345;DHT22;10330;48.816;9.278;2023-04-03T01:14:24;4.70;99.90
20345;DHT22;10330;48.816;9.278;2023-04-03T01:27:34;4.60;99.90
20345;DHT22;10330;48.816;9.278;2023-04-03T01:30:51;4.50;99.90
20345;DHT22;10330;48.816;9.278;2023-04-03T01:33:30;4.50;99.90
20345;DHT22;10330;48.816;9.278;2023-04-03T01:36:22;4.50;99.90
20345;DHT22;10330;48.816;9.278;2023-04-03T01:39:21;4.40;99.90
20345;DHT22;10330;48.816;9.278;2023-04-03T01:50:09;4.50;99.90
20345;DHT22;10330;48.816;9.278;2023-04-03T01:59:42;4.50;99.90
20345;DHT22;10330;48.816;9.278;2023-04-03T02:07:42;4.50;99.90
20345;DHT22;10330;48.816;9.278;2023-04-03T02:18:36;4.50;99.90
20345;DHT22;10330;48.816;9.278;2023-04-03T02:24:26;4.40;99.90
20345;DHT22;10330;48.816;9.278;2023-04-03T02:27:36;4.40;99.90
20345;DHT22;10330;48.816;9.278;2023-04-03T02:59:45;4.40;99.90
20345;DHT22;10330;48.816;9.278;2023-04-03T03:07:17;4.40;99.90
20345;DHT22;10330;48.816;9.278;2023-04-03T03:10:05;4.50;99.90
20345;DHT22;10330;48.816;9.278;2023-04-03T03:16:56;4.50;99.90
20345;DHT22;10330;48.816;9.278;2023-04-03T03:32:08;4.50;99.90
20345;DHT22;10330;48.816;9.278;2023-04-03T03:34:38;4.40;99.90
20345;DHT22;10330;48.816;9.278;2023-04-03T03:37:21;4.40;99.90
20345;DHT22;10330;48.816;9.278;2023-04-03T03:40:37;4.40;99.90
20345;DHT22;10330;48.816;9.278;2023-04-03T03:43:20;4.40;99.90
20345;DHT22;10330;48.816;9.278;2023-04-03T03:46:08;4.40;99.90
20345;DHT22;10330;48.816;9.278;2023-04-03T03:49:29;4.40;99.90
20345;DHT22;10330;48.816;9.278;2023-04-03T03:52:11;4.40;99.90
20345;DHT22;10330;48.816;9.278;2023-04-03T03:55:39;4.40;99.90
20345;DHT22;10330;48.816;9.278;2023-04-03T04:01:52;4.40;99.90
20345;DHT22;10330;48.816;9.278;2023-04-03T04:04:27;4.50;99.90
20345;DHT22;10330;48.816;9.278;2023-04-03T04:33:06;4.60;99.90
20345;DHT22;10330;48.816;9.278;2023-04-03T04:39:47;4.50;99.90
20345;DHT22;10330;48.816;9.278;2023-04-03T04:42:59;4.60;99.90
20345;DHT22;10330;48.816;9.278;2023-04-03T04:57:35;4.60;99.90
20345;DHT22;10330;48.816;9.278;2023-04-03T05:03:25;4.60;99.90
20345;DHT22;10330;48.816;9.278;2023-04-03T05:06:17;4.50;99.90
20345;DHT22;10330;48.816;9.278;2023-04-03T05:08:45;4.50;99.90
20345;DHT22;10330;48.816;9.278;2023-04-03T05:14:44;4.50;99.90
20345;DHT22;10330;48.816;9.278;2023-04-03T05:17:29;4.60;99.90
20345;DHT22;10330;48.816;9.278;2023-04-03T05:20:01;4.50;99.90
20345;DHT22;10330;48.816;9.278;2023-04-03T05:22:58;4.50;99.90
20345;DHT22;10330;48.816;9.278;2023-04-03T05:28:55;4.50;99.90
20345;DHT22;10330;48.816;9.278;2023-04-03T05:32:14;4.40;99.90
20345;DHT22;10330;48.816;9.278;2023-04-03T05:35:35;4.40;99.90
20345;DHT22;10330;48.816;9.278;2023-04-03T05:50:00;4.40;99.90
20345;DHT22;10330;48.816;9.278;2023-04-03T05:57:03;4.40;99.90
20345;DHT22;10330;48.816;9.278;2023-04-03T06:02:24;4.50;99.90
20345;DHT22;10330;48.816;9.278;2023-04-03T06:04:59;4.50;99.90
20345;DHT22;10330;48.816;9.278;2023-04-03T06:08:36;4.50;99.90
20345;DHT22;10330;48.816;9.278;2023-04-03T06:11:04;4.60;99.90
20345;DHT22;10330;48.816;9.278;2023-04-03T06:13:31;4.70;99.90
20345;DHT22;10330;48.816;9.278;2023-04-03T06:15:57;4.70;99.90
20345;DHT22;10330;48.816;9.278;2023-04-03T06:18:24;4.70;99.90
20345;DHT22;10330;48.816;9.278;2023-04-03T06:20:50;4.80;99.90
20345;DHT22;10330;48.816;9.278;2023-04-03T06:23:16;4.90;99.90
20345;DHT22;10330;48.816;9.278;2023-04-03T06:25:43;4.80;99.90
20345;DHT22;10330;48.816;9.278;2023-04-03T06:28:10;4.90;99.90
20345;DHT22;10330;48.816;9.278;2023-04-03T06:30:36;4.90;99.90
20345;DHT22;10330;48.816;9.278;2023-04-03T06:33:03;4.90;99.90
20345;DHT22;10330;48.816;9.278;2023-04-03T06:35:29;5.00;99.90
20345;DHT22;10330;48.816;9.278;2023-04-03T06:37:56;5.00;99.90
20345;DHT22;10330;48.816;9.278;2023-04-03T06:40:24;5.00;99.90
20345;DHT22;10330;48.816;9.278;2023-04-03T06:42:51;5.10;99.90
20345;DHT22;10330;48.816;9.278;2023-04-03T06:45:19;5.00;99.90
20345;DHT22;10330;48.816;9.278;2023-04-03T06:47:45;5.00;99.90
20345;DHT22;10330;48.816;9.278;2023-04-03T06:50:11;4.90;99.90
20345;DHT22;10330;48.816;9.278;2023-04-03T06:52:40;5.10;99.90
20345;DHT22;10330;48.816;9.278;2023-04-03T06:55:07;5.70;99.90
20345;DHT22;10330;48.816;9.278;2023-04-03T06:57:34;5.90;99.90
20345;DHT22;10330;48.816;9.278;2023-04-03T07:00:00;5.80;99.90
20345;DHT22;10330;48.816;9.278;2023-04-03T07:02:26;5.70;99.90
20345;DHT22;10330;48.816;9.278;2023-04-03T07:04:53;5.60;99.90
20345;DHT22;10330;48.816;9.278;2023-04-03T07:07:19;5.70;99.90
20345;DHT22;10330;48.816;9.278;2023-04-03T07:09:45;5.70;99.90
20345;DHT22;10330;48.816;9.278;2023-04-03T07:12:13;5.70;99.90
20345;DHT22;10330;48.816;9.278;2023-04-03T07:14:40;5.70;99.90
20345;DHT22;10330;48.816;9.278;2023-04-03T07:17:06;5.70;99.90
20345;DHT22;10330;48.816;9.278;2023-04-03T07:19:32;5.70;99.90
20345;DHT22;10330;48.816;9.278;2023-04-03T07:21:58;5.70;99.90
20345;DHT22;10330;48.816;9.278;2023-04-03T07:24:25;5.70;99.90
20345;DHT22;10330;48.816;9.278;2023-04-03T07:26:52;5.70;99.90
20345;DHT22;10330;48.816;9.278;2023-04-03T07:29:29;5.70;99.90
20345;DHT22;10330;48.816;9.278;2023-04-03T07:31:56;5.70;99.90
20345;DHT22;10330;48.816;9.278;2023-04-03T07:34:22;5.80;99.90
20345;DHT22;10330;48.816;9.278;2023-04-03T07:36:48;5.90;99.90
20345;DHT22;10330;48.816;9.278;2023-04-03T07:39:14;5.90;99.90
20345;DHT22;10330;48.816;9.278;2023-04-03T07:41:41;5.90;99.90
20345;DHT22;10330;48.816;9.278;2023-04-03T07:44:07;5.90;99.90
20345;DHT22;10330;48.816;9.278;2023-04-03T07:46:36;6.00;99.90
20345;DHT22;10330;48.816;9.278;2023-04-03T07:49:02;6.00;99.90
20345;DHT22;10330;48.816;9.278;2023-04-03T07:51:29;6.10;99.90
20345;DHT22;10330;48.816;9.278;2023-04-03T07:53:55;6.10;99.90
20345;DHT22;10330;48.816;9.278;2023-04-03T07:56:21;6.10;99.90
20345;DHT22;10330;48.816;9.278;2023-04-03T07:58:48;6.10;99.90
20345;DHT22;10330;48.816;9.278;2023-04-03T08:01:15;6.20;99.90
20345;DHT22;10330;48.816;9.278;2023-04-03T08:03:41;6.20;99.90
20345;DHT22;10330;48.816;9.278;2023-04-03T08:06:08;6.20;99.90
20345;DHT22;10330;48.816;9.278;2023-04-03T08:08:37;6.30;99.90
20345;DHT22;10330;48.816;9.278;2023-04-03T08:11:03;6.30;99.90
20345;DHT22;10330;48.816;9.278;2023-04-03T08:13:31;6.30;99.90
20345;DHT22;10330;48.816;9.278;2023-04-03T08:16:14;6.30;99.90
20345;DHT22;10330;48.816;9.278;2023-04-03T08:18:42;6.40;99.90
20345;DHT22;10330;48.816;9.278;2023-04-03T08:21:10;6.40;99.90
20345;DHT22;10330;48.816;9.278;2023-04-03T08:23:37;6.30;99.90
20345;DHT22;10330;48.816;9.278;2023-04-03T08:26:12;6.50;99.90
20345;DHT22;10330;48.816;9.278;2023-04-03T08:28:39;6.70;99.90
20345;DHT22;10330;48.816;9.278;2023-04-03T08:31:08;6.70;99.90
20345;DHT22;10330;48.816;9.278;2023-04-03T08:33:37;6.80;99.90
20345;DHT22;10330;48.816;9.278;2023-04-03T08:36:15;6.90;99.90
20345;DHT22;10330;48.816;9.278;2023-04-03T08:38:42;6.90;99.90
20345;DHT22;10330;48.816;9.278;2023-04-03T08:50:13;6.70;99.90
20345;DHT22;10330;48.816;9.278;2023-04-03T08:53:01;6.70;99.90
20345;DHT22;10330;48.816;9.278;2023-04-03T08:55:41;6.80;99.90
20345;DHT22;10330;48.816;9.278;2023-04-03T09:01:00;6.80;99.90
20345;DHT22;10330;48.816;9.278;2023-04-03T09:03:30;6.90;99.90
20345;DHT22;10330;48.816;9.278;2023-04-03T09:06:05;7.00;99.90
20345;DHT22;10330;48.816;9.278;2023-04-03T09:08:40;7.20;99.90
20345;DHT22;10330;48.816;9.278;2023-04-03T09:19:20;7.30;99.90
20345;DHT22;10330;48.816;9.278;2023-04-03T09:21:47;7.30;99.90
20345;DHT22;10330;48.816;9.278;2023-04-03T09:24:15;7.50;99.90
20345;DHT22;10330;48.816;9.278;2023-04-03T09:27:01;7.50;99.90
20345;DHT22;10330;48.816;9.278;2023-04-03T09:29:30;7.60;99.90
20345;DHT22;10330;48.816;9.278;2023-04-03T09:32:09;7.60;99.90
20345;DHT22;10330;48.816;9.278;2023-04-03T09:34:50;7.70;99.90
20345;DHT22;10330;48.816;9.278;2023-04-03T09:37:42;7.70;99.90
20345;DHT22;10330;48.816;9.278;2023-04-03T09:43:00;7.70;99.90
20345;DHT22;10330;48.816;9.278;2023-04-03T09:45:33;7.70;99.90
20345;DHT22;10330;48.816;9.278;2023-04-03T09:48:08;7.70;99.90
20345;DHT22;10330;48.816;9.278;2023-04-03T09:50:36;7.70;99.90
20345;DHT22;10330;48.816;9.278;2023-04-03T09:53:11;7.80;99.90
20345;DHT22;10330;48.816;9.278;2023-04-03T09:55:57;7.90;99.90
20345;DHT22;10330;48.816;9.278;2023-04-03T09:58:38;7.70;99.90
20345;DHT22;10330;48.816;9.278;2023-04-03T10:01:22;7.70;99.90
20345;DHT22;10330;48.816;9.278;2023-04-03T10:04:09;7.80;99.90
20345;DHT22;10330;48.816;9.278;2023-04-03T10:06:47;7.80;99.90
20345;DHT22;10330;48.816;9.278;2023-04-03T10:09:32;7.80;99.90
20345;DHT22;10330;48.816;9.278;2023-04-03T10:12:09;7.80;99.90
20345;DHT22;10330;48.816;9.278;2023-04-03T10:15:01;7.90;99.90
20345;DHT22;10330;48.816;9.278;2023-04-03T10:23:27;7.80;99.90
20345;DHT22;10330;48.816;9.278;2023-04-03T10:26:09;7.60;99.90
20345;DHT22;10330;48.816;9.278;2023-04-03T10:34:06;7.30;99.90
20345;DHT22;10330;48.816;9.278;2023-04-03T10:43:18;7.30;99.90
20345;DHT22;10330;48.816;9.278;2023-04-03T10:48:46;7.40;99.90
20345;DHT22;10330;48.816;9.278;2023-04-03T10:51:39;7.40;99.90
20345;DHT22;10330;48.816;9.278;2023-04-03T10:54:32;7.50;99.90
20345;DHT22;10330;48.816;9.278;2023-04-03T10:57:08;7.50;99.90
20345;DHT22;10330;48.816;9.278;2023-04-03T10:59:45;7.60;99.90
20345;DHT22;10330;48.816;9.278;2023-04-03T11:02:31;7.60;99.90
20345;DHT22;10330;48.816;9.278;2023-04-03T11:05:04;7.80;99.90
20345;DHT22;10330;48.816;9.278;2023-04-03T11:07:45;7.80;99.90
20345;DHT22;10330;48.816;9.278;2023-04-03T11:10:21;7.70;99.90
20345;DHT22;10330;48.816;9.278;2023-04-03T11:12:58;7.70;99.90
20345;DHT22;10330;48.816;9.278;2023-04-03T11:15:30;7.60;99.90
20345;DHT22;10330;48.816;9.278;2023-04-03T11:18:15;7.60;99.90
20345;DHT22;10330;48.816;9.278;2023-04-03T11:20:50;7.60;99.90
20345;DHT22;10330;48.816;9.278;2023-04-03T11:23:24;7.60;99.90
20345;DHT22;10330;48.816;9.278;2023-04-03T11:25:55;7.70;99.90
20345;DHT22;10330;48.816;9.278;2023-04-03T11:28:23;7.70;99.90
20345;DHT22;10330;48.816;9.278;2023-04-03T11:31:12;7.90;99.90
20345;DHT22;10330;48.816;9.278;2023-04-03T11:34:00;7.90;99.90
20345;DHT22;10330;48.816;9.278;2023-04-03T11:36:41;7.90;99.90
20345;DHT22;10330;48.816;9.278;2023-04-03T11:41:47;8.00;99.90
20345;DHT22;10330;48.816;9.278;2023-04-03T11:44:35;8.00;99.90
20345;DHT22;10330;48.816;9.278;2023-04-03T11:47:12;8.10;99.90
20345;DHT22;10330;48.816;9.278;2023-04-03T11:50:03;8.30;99.90
20345;DHT22;10330;48.816;9.278;2023-04-03T12:24:32;8.60;99.90
20345;DHT22;10330;48.816;9.278;2023-04-03T12:27:20;8.60;99.90
20345;DHT22;10330;48.816;9.278;2023-04-03T12:30:15;8.50;99.90
20345;DHT22;10330;48.816;9.278;2023-04-03T12:32:58;8.40;99.90
20345;DHT22;10330;48.816;9.278;2023-04-03T12:38:25;8.20;99.90
20345;DHT22;10330;48.816;9.278;2023-04-03T12:47:00;8.10;99.90
20345;DHT22;10330;48.816;9.278;2023-04-03T12:49:44;8.20;99.90
20345;DHT22;10330;48.816;9.278;2023-04-03T12:52:33;8.00;99.90
20345;DHT22;10330;48.816;9.278;2023-04-03T12:55:14;8.00;99.90
20345;DHT22;10330;48.816;9.278;2023-04-03T12:57:41;8.10;99.90
20345;DHT22;10330;48.816;9.278;2023-04-03T13:02:48;8.40;99.90
20345;DHT22;10330;48.816;9.278;2023-04-03T13:05:21;8.50;99.90
20345;DHT22;10330;48.816;9.278;2023-04-03T13:07:57;8.50;99.90
20345;DHT22;10330;48.816;9.278;2023-04-03T13:10:26;8.70;99.90
20345;DHT22;10330;48.816;9.278;2023-04-03T13:12:58;8.70;99.90
20345;DHT22;10330;48.816;9.278;2023-04-03T13:15:30;8.70;99.90
20345;DHT22;10330;48.816;9.278;2023-04-03T13:18:05;8.70;99.90
20345;DHT22;10330;48.816;9.278;2023-04-03T13:20:48;8.60;99.90
20345;DHT22;10330;48.816;9.278;2023-04-03T13:23:19;8.50;99.90
20345;DHT22;10330;48.816;9.278;2023-04-03T13:25:57;8.50;99.90
20345;DHT22;10330;48.816;9.278;2023-04-03T13:28:32;8.50;99.90
20345;DHT22;10330;48.816;9.278;2023-04-03T13:31:07;8.60;99.90
20345;DHT22;10330;48.816;9.278;2023-04-03T13:33:41;8.90;99.90
20345;DHT22;10330;48.816;9.278;2023-04-03T13:36:21;9.10;99.90
20345;DHT22;10330;48.816;9.278;2023-04-03T13:41:42;9.50;99.90
20345;DHT22;10330;48.816;9.278;2023-04-03T13:44:17;9.60;99.90
20345;DHT22;10330;48.816;9.278;2023-04-03T13:46:50;9.50;99.90
20345;DHT22;10330;48.816;9.278;2023-04-03T13:49:34;9.40;99.90
20345;DHT22;10330;48.816;9.278;2023-04-03T13:54:53;9.30;99.90
20345;DHT22;10330;48.816;9.278;2023-04-03T13:57:20;9.30;99.90
20345;DHT22;10330;48.816;9.278;2023-04-03T13:59:47;9.30;99.90
20345;DHT22;10330;48.816;9.278;2023-04-03T14:02:21;9.10;99.90
20345;DHT22;10330;48.816;9.278;2023-04-03T14:04:54;9.20;99.90
20345;DHT22;10330;48.816;9.278;2023-04-03T14:07:24;9.00;99.90
20345;DHT22;10330;48.816;9.278;2023-04-03T14:09:53;9.00;99.90
20345;DHT22;10330;48.816;9.278;2023-04-03T14:12:34;9.10;99.90
20345;DHT22;10330;48.816;9.278;2023-04-03T14:15:18;9.20;99.90
20345;DHT22;10330;48.816;9.278;2023-04-03T14:17:46;9.30;99.90
20345;DHT22;10330;48.816;9.278;2023-04-03T14:20:16;9.30;99.90
20345;DHT22;10330;48.816;9.278;2023-04-03T14:22:43;9.30;99.90
20345;DHT22;10330;48.816;9.278;2023-04-03T14:25:13;9.60;99.90
20345;DHT22;10330;48.816;9.278;2023-04-03T14:27:50;10.30;99.90
20345;DHT22;10330;48.816;9.278;2023-04-03T14:30:23;11.20;99.90
20345;DHT22;10330;48.816;9.278;2023-04-03T14:32:49;11.60;99.90
20345;DHT22;10330;48.816;9.278;2023-04-03T14:35:17;11.50;99.90
20345;DHT22;10330;48.816;9.278;2023-04-03T14:37:45;11.10;99.90
20345;DHT22;10330;48.816;9.278;2023-04-03T14:40:23;10.80;99.90
20345;DHT22;10330;48.816;9.278;2023-04-03T14:42:50;10.40;99.90
20345;DHT22;10330;48.816;9.278;2023-04-03T14:45:17;10.30;99.90
20345;DHT22;10330;48.816;9.278;2023-04-03T14:47:46;10.10;99.90
20345;DHT22;10330;48.816;9.278;2023-04-03T14:50:19;10.00;99.90
20345;DHT22;10330;48.816;9.278;2023-04-03T14:52:48;9.80;99.90
20345;DHT22;10330;48.816;9.278;2023-04-03T14:55:16;9.80;99.90
20345;DHT22;10330;48.816;9.278;2023-04-03T14:57:43;9.80;99.90
20345;DHT22;10330;48.816;9.278;2023-04-03T15:00:15;9.90;99.90
20345;DHT22;10330;48.816;9.278;2023-04-03T15:02:41;10.20;99.90
20345;DHT22;10330;48.816;9.278;2023-04-03T15:05:09;10.40;99.90
20345;DHT22;10330;48.816;9.278;2023-04-03T15:07:55;10.90;99.90
20345;DHT22;10330;48.816;9.278;2023-04-03T15:10:27;11.40;99.90
20345;DHT22;10330;48.816;9.278;2023-04-03T15:12:54;11.60;99.90
20345;DHT22;10330;48.816;9.278;2023-04-03T15:15:22;11.50;99.90
20345;DHT22;10330;48.816;9.278;2023-04-03T15:17:54;11.20;99.90
20345;DHT22;10330;48.816;9.278;2023-04-03T15:20:23;11.00;99.90
20345;DHT22;10330;48.816;9.278;2023-04-03T15:22:50;10.80;99.90
20345;DHT22;10330;48.816;9.278;2023-04-03T15:25:21;10.30;99.90
20345;DHT22;10330;48.816;9.278;2023-04-03T15:27:48;10.10;99.90
20345;DHT22;10330;48.816;9.278;2023-04-03T15:30:17;9.90;99.90
20345;DHT22;10330;48.816;9.278;2023-04-03T15:32:44;9.80;99.90
20345;DHT22;10330;48.816;9.278;2023-04-03T15:35:11;9.80;99.90
20345;DHT22;10330;48.816;9.278;2023-04-03T15:37:38;9.90;99.90
20345;DHT22;10330;48.816;9.278;2023-04-03T15:40:10;10.30;99.90
20345;DHT22;10330;48.816;9.278;2023-04-03T15:42:38;10.90;99.90
20345;DHT22;10330;48.816;9.278;2023-04-03T15:45:09;11.60;99.90
20345;DHT22;10330;48.816;9.278;2023-04-03T15:47:49;12.10;99.90
20345;DHT22;10330;48.816;9.278;2023-04-03T15:50:16;12.50;99.90
20345;DHT22;10330;48.816;9.278;2023-04-03T15:52:48;12.90;98.90
20345;DHT22;10330;48.816;9.278;2023-04-03T15:55:36;13.30;98.90
20345;DHT22;10330;48.816;9.278;2023-04-03T15:58:03;13.70;96.80
20345;DHT22;10330;48.816;9.278;2023-04-03T16:00:32;13.70;94.90
20345;DHT22;10330;48.816;9.278;2023-04-03T16:03:02;13.80;95.40
20345;DHT22;10330;48.816;9.278;2023-04-03T16:05:30;13.70;94.00
20345;DHT22;10330;48.816;9.278;2023-04-03T16:07:59;13.20;93.60
20345;DHT22;10330;48.816;9.278;2023-04-03T16:10:26;12.70;93.60
20345;DHT22;10330;48.816;9.278;2023-04-03T16:12:52;12.00;94.60
20345;DHT22;10330;48.816;9.278;2023-04-03T16:15:18;11.40;95.20
20345;DHT22;10330;48.816;9.278;2023-04-03T16:17:45;11.40;96.20
20345;DHT22;10330;48.816;9.278;2023-04-03T16:20:13;11.70;96.10
20345;DHT22;10330;48.816;9.278;2023-04-03T16:22:40;12.00;95.80
20345;DHT22;10330;48.816;9.278;2023-04-03T16:25:07;12.50;96.50
20345;DHT22;10330;48.816;9.278;2023-04-03T16:27:34;12.80;96.40
20345;DHT22;10330;48.816;9.278;2023-04-03T16:30:00;13.00;95.60
20345;DHT22;10330;48.816;9.278;2023-04-03T16:32:29;13.10;95.30
20345;DHT22;10330;48.816;9.278;2023-04-03T16:34:57;13.10;95.90
20345;DHT22;10330;48.816;9.278;2023-04-03T16:37:23;13.10;95.50
20345;DHT22;10330;48.816;9.278;2023-04-03T16:39:49;13.10;95.70
20345;DHT22;10330;48.816;9.278;2023-04-03T16:42:16;12.40;94.30
20345;DHT22;10330;48.816;9.278;2023-04-03T16:44:42;11.90;94.60
20345;DHT22;10330;48.816;9.278;2023-04-03T16:47:08;11.30;94.90
20345;DHT22;10330;48.816;9.278;2023-04-03T16:49:35;11.00;96.50
20345;DHT22;10330;48.816;9.278;2023-04-03T16:52:02;10.90;97.10
20345;DHT22;10330;48.816;9.278;2023-04-03T16:54:29;10.70;97.50
20345;DHT22;10330;48.816;9.278;2023-04-03T16:56:55;10.50;98.20
20345;DHT22;10330;48.816;9.278;2023-04-03T16:59:22;10.30;98.10
20345;DHT22;10330;48.816;9.278;2023-04-03T17:01:48;10.10;98.80
20345;DHT22;10330;48.816;9.278;2023-04-03T17:04:14;9.80;98.70
20345;DHT22;10330;48.816;9.278;2023-04-03T17:06:40;9.70;99.70
20345;DHT22;10330;48.816;9.278;2023-04-03T17:09:08;9.50;99.90
20345;DHT22;10330;48.816;9.278;2023-04-03T17:11:35;9.20;99.90
20345;DHT22;10330;48.816;9.278;2023-04-03T17:14:02;9.10;99.90
20345;DHT22;10330;48.816;9.278;2023-04-03T17:16:29;9.00;99.90
20345;DHT22;10330;48.816;9.278;2023-04-03T17:18:56;8.90;99.90
20345;DHT22;10330;48.816;9.278;2023-04-03T17:21:23;8.70;99.90
20345;DHT22;10330;48.816;9.278;2023-04-03T17:23:53;8.60;99.90
20345;DHT22;10330;48.816;9.278;2023-04-03T17:26:20;8.60;99.90
20345;DHT22;10330;48.816;9.278;2023-04-03T17:28:49;8.30;99.90
20345;DHT22;10330;48.816;9.278;2023-04-03T17:31:15;8.20;99.90
20345;DHT22;10330;48.816;9.278;2023-04-03T17:33:41;8.10;99.90
20345;DHT22;10330;48.816;9.278;2023-04-03T17:36:08;8.00;99.90
20345;DHT22;10330;48.816;9.278;2023-04-03T17:38:35;7.90;99.90
20345;DHT22;10330;48.816;9.278;2023-04-03T17:41:08;7.80;99.90
20345;DHT22;10330;48.816;9.278;2023-04-03T17:43:37;7.80;99.90
20345;DHT22;10330;48.816;9.278;2023-04-03T17:46:07;7.70;99.90
20345;DHT22;10330;48.816;9.278;2023-04-03T17:48:35;7.70;99.90
20345;DHT22;10330;48.816;9.278;2023-04-03T17:51:11;7.50;99.90
20345;DHT22;10330;48.816;9.278;2023-04-03T17:53:38;7.40;99.90
20345;DHT22;10330;48.816;9.278;2023-04-03T17:56:14;7.30;99.90
20345;DHT22;10330;48.816;9.278;2023-04-03T17:58:46;7.20;99.90
20345;DHT22;10330;48.816;9.278;2023-04-03T18:01:18;7.10;99.90
20345;DHT22;10330;48.816;9.278;2023-04-03T18:03:45;7.00;99.90
20345;DHT22;10330;48.816;9.278;2023-04-03T18:06:18;7.00;99.90
20345;DHT22;10330;48.816;9.278;2023-04-03T18:12:11;6.90;99.90
20345;DHT22;10330;48.816;9.278;2023-04-03T18:14:39;6.80;99.90
20345;DHT22;10330;48.816;9.278;2023-04-03T18:17:06;6.90;99.90
20345;DHT22;10330;48.816;9.278;2023-04-03T18:19:33;6.80;99.90
20345;DHT22;10330;48.816;9.278;2023-04-03T18:22:11;6.80;99.90
20345;DHT22;10330;48.816;9.278;2023-04-03T18:24:40;6.70;99.90
20345;DHT22;10330;48.816;9.278;2023-04-03T18:27:13;6.70;99.90
20345;DHT22;10330;48.816;9.278;2023-04-03T18:29:42;6.70;99.90
20345;DHT22;10330;48.816;9.278;2023-04-03T18:32:13;6.50;99.90
20345;DHT22;10330;48.816;9.278;2023-04-03T18:34:39;6.50;99.90
20345;DHT22;10330;48.816;9.278;2023-04-03T18:37:05;6.50;99.90
20345;DHT22;10330;48.816;9.278;2023-04-03T18:39:32;6.40;99.90
20345;DHT22;10330;48.816;9.278;2023-04-03T18:42:04;6.30;99.90
20345;DHT22;10330;48.816;9.278;2023-04-03T18:44:32;6.30;99.90
20345;DHT22;10330;48.816;9.278;2023-04-03T18:46:59;6.20;99.90
20345;DHT22;10330;48.816;9.278;2023-04-03T18:49:29;6.20;99.90
20345;DHT22;10330;48.816;9.278;2023-04-03T18:51:57;6.10;99.90
20345;DHT22;10330;48.816;9.278;2023-04-03T18:54:24;6.10;99.90
20345;DHT22;10330;48.816;9.278;2023-04-03T18:56:50;6.00;99.90
20345;DHT22;10330;48.816;9.278;2023-04-03T18:59:16;6.00;99.90
20345;DHT22;10330;48.816;9.278;2023-04-03T19:01:42;6.00;99.90
20345;DHT22;10330;48.816;9.278;2023-04-03T19:04:09;6.00;99.90
20345;DHT22;10330;48.816;9.278;2023-04-03T19:06:36;6.00;99.90
20345;DHT22;10330;48.816;9.278;2023-04-03T19:09:06;5.90;99.90
20345;DHT22;10330;48.816;9.278;2023-04-03T19:11:33;5.90;99.90
20345;DHT22;10330;48.816;9.278;2023-04-03T19:14:00;5.90;99.90
20345;DHT22;10330;48.816;9.278;2023-04-03T19:16:26;5.80;99.90
20345;DHT22;10330;48.816;9.278;2023-04-03T19:18:52;5.80;99.90
20345;DHT22;10330;48.816;9.278;2023-04-03T19:21:18;5.80;99.90
20345;DHT22;10330;48.816;9.278;2023-04-03T19:23:45;5.80;99.90
20345;DHT22;10330;48.816;9.278;2023-04-03T19:26:13;5.80;99.90
20345;DHT22;10330;48.816;9.278;2023-04-03T19:28:40;5.80;99.90
20345;DHT22;10330;48.816;9.278;2023-04-03T19:31:15;5.80;99.90
20345;DHT22;10330;48.816;9.278;2023-04-03T19:33:42;5.70;99.90
20345;DHT22;10330;48.816;9.278;2023-04-03T19:36:10;5.70;99.90
20345;DHT22;10330;48.816;9.278;2023-04-03T19:38:36;5.70;99.90
20345;DHT22;10330;48.816;9.278;2023-04-03T19:41:08;5.70;99.90
20345;DHT22;10330;48.816;9.278;2023-04-03T19:43:36;5.70;99.90
20345;DHT22;10330;48.816;9.278;2023-04-03T19:46:04;5.60;99.90
20345;DHT22;10330;48.816;9.278;2023-04-03T19:48:31;5.60;99.90
20345;DHT22;10330;48.816;9.278;2023-04-03T19:50:57;5.50;99.90
20345;DHT22;10330;48.816;9.278;2023-04-03T19:53:23;5.50;99.90
20345;DHT22;10330;48.816;9.278;2023-04-03T19:55:56;5.50;99.90
20345;DHT22;10330;48.816;9.278;2023-04-03T19:58:24;5.50;99.90
20345;DHT22;10330;48.816;9.278;2023-04-03T20:00:52;5.50;99.90
20345;DHT22;10330;48.816;9.278;2023-04-03T20:03:18;5.40;99.90
20345;DHT22;10330;48.816;9.278;2023-04-03T20:05:45;5.40;99.90
20345;DHT22;10330;48.816;9.278;2023-04-03T20:08:12;5.30;99.90
20345;DHT22;10330;48.816;9.278;2023-04-03T20:10:38;5.30;99.90
20345;DHT22;10330;48.816;9.278;2023-04-03T20:13:08;5.20;99.90
20345;DHT22;10330;48.816;9.278;2023-04-03T20:15:40;5.10;99.90
20345;DHT22;10330;48.816;9.278;2023-04-03T20:18:08;5.10;99.90
20345;DHT22;10330;48.816;9.278;2023-04-03T20:20:35;5.00;99.90
20345;DHT22;10330;48.816;9.278;2023-04-03T20:23:08;4.90;99.90
20345;DHT22;10330;48.816;9.278;2023-04-03T20:25:43;4.90;99.90
20345;DHT22;10330;48.816;9.278;2023-04-03T20:28:11;4.90;99.90
20345;DHT22;10330;48.816;9.278;2023-04-03T20:30:38;4.70;99.90
20345;DHT22;10330;48.816;9.278;2023-04-03T20:33:05;4.70;99.90
20345;DHT22;10330;48.816;9.278;2023-04-03T20:35:32;4.70;99.90
20345;DHT22;10330;48.816;9.278;2023-04-03T20:37:58;4.60;99.90
20345;DHT22;10330;48.816;9.278;2023-04-03T20:40:25;4.60;99.90
20345;DHT22;10330;48.816;9.278;2023-04-03T20:42:53;4.60;99.90
20345;DHT22;10330;48.816;9.278;2023-04-03T20:45:20;4.50;99.90
20345;DHT22;10330;48.816;9.278;2023-04-03T20:47:47;4.40;99.90
20345;DHT22;10330;48.816;9.278;2023-04-03T20:50:15;4.40;99.90
20345;DHT22;10330;48.816;9.278;2023-04-03T20:52:41;4.30;99.90
20345;DHT22;10330;48.816;9.278;2023-04-03T20:55:08;4.30;99.90
20345;DHT22;10330;48.816;9.278;2023-04-03T20:57:35;4.20;99.90
20345;DHT22;10330;48.816;9.278;2023-04-03T21:00:03;4.20;99.90
20345;DHT22;10330;48.816;9.278;2023-04-03T21:02:33;4.10;99.90